sensor_id;sensor_type;location;lat;lon;timestamp;pressure;altitude;pressure_sealevel;temperature;humidity
54308;BME280;40208;39.778;2.710;2023-05-01T00:02:14;101320.19;;;15.42;100.00
54308;BME280;40208;39.778;2.710;2023-05-01T00:04:59;101489.03;;;16.32;100.00
54308;BME280;40208;39.778;2.710;2023-05-01T00:07:44;101262.69;;;15.03;100.00
54308;BME280;40208;39.778;2.710;2023-05-01T00:10:29;101436.47;;;16.00;100.00
54308;BME280;40208;39.778;2.710;2023-05-01T00:13:15;101430.25;;;15.99;100.00
54308;BME280;40208;39.778;2.710;2023-05-01T00:16:11;101484.69;;;16.30;100.00
54308;BME280;40208;39.778;2.710;2023-05-01T00:18:56;101455.53;;;16.09;100.00
54308;BME280;40208;39.778;2.710;2023-05-01T00:21:41;101460.13;;;16.07;100.00
54308;BME280;40208;39.778;2.710;2023-05-01T00:24:25;101322.88;;;15.26;100.00
54308;BME280;40208;39.778;2.710;2023-05-01T00:27:10;101435.25;;;16.05;100.00
54308;BME280;40208;39.778;2.710;2023-05-01T00:29:55;101469.78;;;16.26;100.00
54308;BME280;40208;39.778;2.710;2023-05-01T00:32:40;101397.09;;;15.70;100.00
54308;BME280;40208;39.778;2.710;2023-05-01T00:35:25;101466.50;;;16.21;100.00
54308;BME280;40208;39.778;2.710;2023-05-01T00:38:10;101471.09;;;16.19;100.00
54308;BME280;40208;39.778;2.710;2023-05-01T00:40:55;101467.19;;;16.08;100.00
54308;BME280;40208;39.778;2.710;2023-05-01T00:43:40;101472.47;;;16.10;100.00
54308;BME280;40208;39.778;2.710;2023-05-01T00:46:27;101451.06;;;15.94;100.00
54308;BME280;40208;39.778;2.710;2023-05-01T00:49:13;101390.00;;;15.53;100.00
54308;BME280;40208;39.778;2.710;2023-05-01T00:51:58;101434.06;;;15.79;100.00
54308;BME280;40208;39.778;2.710;2023-05-01T00:54:44;101389.81;;;15.56;100.00
54308;BME280;40208;39.778;2.710;2023-05-01T00:57:35;101381.91;;;15.55;100.00
54308;BME280;40208;39.778;2.710;2023-05-01T01:00:21;101329.59;;;15.17;100.00
54308;BME280;40208;39.778;2.710;2023-05-01T01:03:09;101348.22;;;15.35;100.00
54308;BME280;40208;39.778;2.710;2023-05-01T01:06:31;101362.06;;;15.43;100.00
54308;BME280;40208;39.778;2.710;2023-05-01T01:09:54;101430.25;;;15.83;100.00
54308;BME280;40208;39.778;2.710;2023-05-01T01:12:51;101449.41;;;15.92;100.00
54308;BME280;40208;39.778;2.710;2023-05-01T01:15:52;101441.16;;;15.80;100.00
54308;BME280;40208;39.778;2.710;2023-05-01T01:21:38;101259.22;;;14.69;100.00
54308;BME280;40208;39.778;2.710;2023-05-01T01:24:43;101371.69;;;15.30;100.00
54308;BME280;40208;39.778;2.710;2023-05-01T01:36:38;101409.16;;;15.45;100.00
54308;BME280;40208;39.778;2.710;2023-05-01T01:39:31;101418.13;;;15.44;100.00
54308;BME280;40208;39.778;2.710;2023-05-01T01:42:25;101419.16;;;15.42;100.00
54308;BME280;40208;39.778;2.710;2023-05-01T01:45:17;101425.28;;;15.44;100.00
54308;BME280;40208;39.778;2.710;2023-05-01T01:48:08;101412.53;;;15.49;100.00
54308;BME280;40208;39.778;2.710;2023-05-01T01:50:56;101389.31;;;15.34;100.00
54308;BME280;40208;39.778;2.710;2023-05-01T01:53:45;101400.94;;;15.33;100.00
54308;BME280;40208;39.778;2.710;2023-05-01T01:56:33;101399.41;;;15.29;100.00
54308;BME280;40208;39.778;2.710;2023-05-01T01:59:20;101335.06;;;14.82;100.00
54308;BME280;40208;39.778;2.710;2023-05-01T02:02:06;101401.72;;;15.19;100.00
54308;BME280;40208;39.778;2.710;2023-05-01T02:04:53;101385.88;;;14.98;100.00
54308;BME280;40208;39.778;2.710;2023-05-01T02:07:41;101398.53;;;14.95;100.00
54308;BME280;40208;39.778;2.710;2023-05-01T02:10:28;101387.84;;;14.95;100.00
54308;BME280;40208;39.778;2.710;2023-05-01T02:13:14;101394.22;;;14.92;100.00
54308;BME280;40208;39.778;2.710;2023-05-01T02:16:01;101335.44;;;14.59;100.00
54308;BME280;40208;39.778;2.710;2023-05-01T02:18:48;101333.94;;;14.53;100.00
54308;BME280;40208;39.778;2.710;2023-05-01T02:21:34;101368.13;;;14.64;100.00
54308;BME280;40208;39.778;2.710;2023-05-01T02:24:22;101375.88;;;14.69;100.00
54308;BME280;40208;39.778;2.710;2023-05-01T02:27:13;101343.75;;;14.53;100.00
54308;BME280;40208;39.778;2.710;2023-05-01T02:29:59;101346.50;;;14.51;100.00
54308;BME280;40208;39.778;2.710;2023-05-01T02:32:43;101258.38;;;14.00;100.00
54308;BME280;40208;39.778;2.710;2023-05-01T02:35:28;101377.44;;;14.73;100.00
54308;BME280;40208;39.778;2.710;2023-05-01T02:38:13;101360.13;;;14.64;100.00
54308;BME280;40208;39.778;2.710;2023-05-01T02:40:59;101370.53;;;14.51;100.00
54308;BME280;40208;39.778;2.710;2023-05-01T02:43:47;101300.84;;;14.05;100.00
54308;BME280;40208;39.778;2.710;2023-05-01T02:46:36;101285.59;;;13.90;100.00
54308;BME280;40208;39.778;2.710;2023-05-01T02:49:21;101137.28;;;12.99;100.00
54308;BME280;40208;39.778;2.710;2023-05-01T02:52:07;101376.75;;;14.17;100.00
54308;BME280;40208;39.778;2.710;2023-05-01T02:54:52;101283.09;;;13.69;100.00
54308;BME280;40208;39.778;2.710;2023-05-01T02:57:37;101247.84;;;13.63;100.00
54308;BME280;40208;39.778;2.710;2023-05-01T03:00:22;101379.66;;;14.30;100.00
54308;BME280;40208;39.778;2.710;2023-05-01T03:03:07;101268.47;;;13.59;100.00
54308;BME280;40208;39.778;2.710;2023-05-01T03:05:52;101354.44;;;14.18;100.00
54308;BME280;40208;39.778;2.710;2023-05-01T03:08:37;101263.75;;;13.64;100.00
54308;BME280;40208;39.778;2.710;2023-05-01T03:11:22;101383.97;;;14.32;100.00
54308;BME280;40208;39.778;2.710;2023-05-01T03:14:07;101336.22;;;14.09;100.00
54308;BME280;40208;39.778;2.710;2023-05-01T03:16:54;101251.91;;;13.52;100.00
54308;BME280;40208;39.778;2.710;2023-05-01T03:19:40;101377.59;;;14.35;100.00
54308;BME280;40208;39.778;2.710;2023-05-01T03:22:28;101385.09;;;14.46;100.00
54308;BME280;40208;39.778;2.710;2023-05-01T03:25:13;101296.81;;;13.96;100.00
54308;BME280;40208;39.778;2.710;2023-05-01T03:27:57;101242.59;;;13.61;100.00
54308;BME280;40208;39.778;2.710;2023-05-01T03:30:43;101314.56;;;13.97;100.00
54308;BME280;40208;39.778;2.710;2023-05-01T03:33:28;101290.94;;;13.90;100.00
54308;BME280;40208;39.778;2.710;2023-05-01T03:36:13;101357.59;;;14.26;100.00
54308;BME280;40208;39.778;2.710;2023-05-01T03:38:58;101293.84;;;13.85;100.00
54308;BME280;40208;39.778;2.710;2023-05-01T03:41:43;101364.72;;;14.26;100.00
54308;BME280;40208;39.778;2.710;2023-05-01T03:44:27;101370.47;;;14.35;100.00
54308;BME280;40208;39.778;2.710;2023-05-01T03:47:12;101358.22;;;14.31;100.00
54308;BME280;40208;39.778;2.710;2023-05-01T03:49:57;101228.69;;;13.54;100.00
54308;BME280;40208;39.778;2.710;2023-05-01T03:52:42;101363.81;;;14.27;100.00
54308;BME280;40208;39.778;2.710;2023-05-01T03:55:26;101220.56;;;13.57;100.00
54308;BME280;40208;39.778;2.710;2023-05-01T03:58:11;101354.19;;;14.40;100.00
54308;BME280;40208;39.778;2.710;2023-05-01T04:00:56;101366.88;;;14.36;100.00
54308;BME280;40208;39.778;2.710;2023-05-01T04:03:44;101215.22;;;13.57;100.00
54308;BME280;40208;39.778;2.710;2023-05-01T04:06:29;101104.19;;;12.85;100.00
54308;BME280;40208;39.778;2.710;2023-05-01T04:09:14;101298.53;;;13.97;100.00
54308;BME280;40208;39.778;2.710;2023-05-01T04:11:59;101365.03;;;14.37;100.00
54308;BME280;40208;39.778;2.710;2023-05-01T04:14:45;101318.41;;;14.09;100.00
54308;BME280;40208;39.778;2.710;2023-05-01T04:17:30;101276.66;;;13.91;100.00
54308;BME280;40208;39.778;2.710;2023-05-01T04:20:15;101379.88;;;14.42;100.00
54308;BME280;40208;39.778;2.710;2023-05-01T04:23:00;101366.88;;;14.36;100.00
54308;BME280;40208;39.778;2.710;2023-05-01T04:25:45;101354.16;;;14.24;100.00
54308;BME280;40208;39.778;2.710;2023-05-01T04:28:30;101313.78;;;13.95;100.00
54308;BME280;40208;39.778;2.710;2023-05-01T04:31:17;101380.84;;;14.24;100.00
54308;BME280;40208;39.778;2.710;2023-05-01T04:34:02;101393.41;;;14.22;100.00
54308;BME280;40208;39.778;2.710;2023-05-01T04:36:47;101368.75;;;14.17;100.00
54308;BME280;40208;39.778;2.710;2023-05-01T04:39:32;100945.63;;;11.50;100.00
54308;BME280;40208;39.778;2.710;2023-05-01T04:42:17;101380.03;;;14.05;100.00
54308;BME280;40208;39.778;2.710;2023-05-01T04:45:02;101383.41;;;14.08;100.00
54308;BME280;40208;39.778;2.710;2023-05-01T04:47:47;101191.81;;;12.91;100.00
54308;BME280;40208;39.778;2.710;2023-05-01T04:50:32;101255.13;;;13.23;100.00
54308;BME280;40208;39.778;2.710;2023-05-01T04:53:17;101229.88;;;13.12;100.00
54308;BME280;40208;39.778;2.710;2023-05-01T04:56:02;101390.41;;;14.11;100.00
54308;BME280;40208;39.778;2.710;2023-05-01T04:58:47;101394.94;;;14.09;100.00
54308;BME280;40208;39.778;2.710;2023-05-01T05:01:32;101289.16;;;13.36;100.00
54308;BME280;40208;39.778;2.710;2023-05-01T05:04:17;101301.47;;;13.39;100.00
54308;BME280;40208;39.778;2.710;2023-05-01T05:07:02;101209.88;;;12.85;100.00
54308;BME280;40208;39.778;2.710;2023-05-01T05:09:46;101305.72;;;13.43;100.00
54308;BME280;40208;39.778;2.710;2023-05-01T05:12:31;101372.78;;;13.72;100.00
54308;BME280;40208;39.778;2.710;2023-05-01T05:15:16;101398.69;;;13.87;100.00
54308;BME280;40208;39.778;2.710;2023-05-01T05:18:01;101408.13;;;13.94;100.00
54308;BME280;40208;39.778;2.710;2023-05-01T05:20:47;101408.63;;;14.03;100.00
54308;BME280;40208;39.778;2.710;2023-05-01T05:23:33;101411.75;;;13.93;100.00
54308;BME280;40208;39.778;2.710;2023-05-01T05:26:18;101118.50;;;12.27;100.00
54308;BME280;40208;39.778;2.710;2023-05-01T05:29:03;101416.41;;;14.07;100.00
54308;BME280;40208;39.778;2.710;2023-05-01T05:31:48;101424.19;;;14.12;100.00
54308;BME280;40208;39.778;2.710;2023-05-01T05:34:32;101434.53;;;14.18;100.00
54308;BME280;40208;39.778;2.710;2023-05-01T05:37:17;101424.41;;;14.07;100.00
54308;BME280;40208;39.778;2.710;2023-05-01T05:40:02;101442.31;;;14.23;100.00
54308;BME280;40208;39.778;2.710;2023-05-01T05:42:47;101441.13;;;14.28;100.00
54308;BME280;40208;39.778;2.710;2023-05-01T05:45:33;101431.88;;;14.35;100.00
54308;BME280;40208;39.778;2.710;2023-05-01T05:48:18;101357.25;;;13.97;100.00
54308;BME280;40208;39.778;2.710;2023-05-01T05:51:03;101434.09;;;14.45;100.00
54308;BME280;40208;39.778;2.710;2023-05-01T05:53:48;101404.88;;;14.41;100.00
54308;BME280;40208;39.778;2.710;2023-05-01T05:56:33;101367.63;;;14.04;100.00
54308;BME280;40208;39.778;2.710;2023-05-01T05:59:18;101369.44;;;14.20;100.00
54308;BME280;40208;39.778;2.710;2023-05-01T06:02:03;101367.34;;;14.27;100.00
54308;BME280;40208;39.778;2.710;2023-05-01T06:04:48;101351.53;;;14.23;100.00
54308;BME280;40208;39.778;2.710;2023-05-01T06:07:32;101388.38;;;14.51;100.00
54308;BME280;40208;39.778;2.710;2023-05-01T06:10:17;101450.59;;;14.88;100.00
54308;BME280;40208;39.778;2.710;2023-05-01T06:13:02;101444.63;;;15.00;100.00
54308;BME280;40208;39.778;2.710;2023-05-01T06:15:48;101380.16;;;14.55;100.00
54308;BME280;40208;39.778;2.710;2023-05-01T06:18:33;101396.53;;;14.82;100.00
54308;BME280;40208;39.778;2.710;2023-05-01T06:21:18;101348.09;;;14.55;100.00
54308;BME280;40208;39.778;2.710;2023-05-01T06:24:03;101227.50;;;13.95;100.00
54308;BME280;40208;39.778;2.710;2023-05-01T06:26:48;101341.84;;;14.72;100.00
54308;BME280;40208;39.778;2.710;2023-05-01T06:29:33;101374.84;;;14.89;100.00
54308;BME280;40208;39.778;2.710;2023-05-01T06:32:18;101247.97;;;14.29;100.00
54308;BME280;40208;39.778;2.710;2023-05-01T06:35:03;101312.09;;;14.62;100.00
54308;BME280;40208;39.778;2.710;2023-05-01T06:37:49;101454.66;;;15.61;100.00
54308;BME280;40208;39.778;2.710;2023-05-01T06:40:34;101465.56;;;15.74;100.00
54308;BME280;40208;39.778;2.710;2023-05-01T06:43:19;101297.34;;;14.89;100.00
54308;BME280;40208;39.778;2.710;2023-05-01T06:46:04;101343.25;;;15.29;100.00
54308;BME280;40208;39.778;2.710;2023-05-01T06:48:51;101452.09;;;16.07;100.00
54308;BME280;40208;39.778;2.710;2023-05-01T06:51:36;101445.34;;;16.16;100.00
54308;BME280;40208;39.778;2.710;2023-05-01T06:54:21;101441.19;;;16.26;100.00
54308;BME280;40208;39.778;2.710;2023-05-01T06:57:06;101440.41;;;16.24;100.00
54308;BME280;40208;39.778;2.710;2023-05-01T06:59:51;101347.97;;;15.87;100.00
54308;BME280;40208;39.778;2.710;2023-05-01T07:02:37;101383.91;;;16.13;100.00
54308;BME280;40208;39.778;2.710;2023-05-01T07:05:24;101374.63;;;16.04;100.00
54308;BME280;40208;39.778;2.710;2023-05-01T07:08:08;101270.72;;;15.49;100.00
54308;BME280;40208;39.778;2.710;2023-05-01T07:10:54;101456.06;;;16.77;100.00
54308;BME280;40208;39.778;2.710;2023-05-01T07:13:39;101284.38;;;15.76;100.00
54308;BME280;40208;39.778;2.710;2023-05-01T07:16:24;101396.00;;;16.65;100.00
54308;BME280;40208;39.778;2.710;2023-05-01T07:19:09;101286.44;;;16.01;100.00
54308;BME280;40208;39.778;2.710;2023-05-01T07:21:56;101455.63;;;16.99;100.00
54308;BME280;40208;39.778;2.710;2023-05-01T07:24:41;101440.03;;;17.20;100.00
54308;BME280;40208;39.778;2.710;2023-05-01T07:27:25;101238.06;;;16.04;100.00
54308;BME280;40208;39.778;2.710;2023-05-01T07:30:12;101436.50;;;17.33;100.00
54308;BME280;40208;39.778;2.710;2023-05-01T07:33:03;101257.34;;;16.54;100.00
54308;BME280;40208;39.778;2.710;2023-05-01T07:35:49;101370.94;;;17.37;100.00
54308;BME280;40208;39.778;2.710;2023-05-01T07:38:34;101435.78;;;17.87;100.00
54308;BME280;40208;39.778;2.710;2023-05-01T07:41:19;101397.72;;;17.80;100.00
54308;BME280;40208;39.778;2.710;2023-05-01T07:44:06;101426.28;;;18.09;100.00
54308;BME280;40208;39.778;2.710;2023-05-01T07:46:51;101306.13;;;17.44;100.00
54308;BME280;40208;39.778;2.710;2023-05-01T07:49:37;101292.97;;;17.53;100.00
54308;BME280;40208;39.778;2.710;2023-05-01T07:52:23;101405.28;;;18.28;100.00
54308;BME280;40208;39.778;2.710;2023-05-01T07:55:08;101371.81;;;18.19;100.00
54308;BME280;40208;39.778;2.710;2023-05-01T07:57:55;101333.97;;;18.10;100.00
54308;BME280;40208;39.778;2.710;2023-05-01T08:00:40;101420.19;;;18.59;100.00
54308;BME280;40208;39.778;2.710;2023-05-01T08:03:29;101427.06;;;18.63;100.00
54308;BME280;40208;39.778;2.710;2023-05-01T08:06:14;101313.56;;;18.07;100.00
54308;BME280;40208;39.778;2.710;2023-05-01T08:08:59;101245.03;;;17.74;100.00
54308;BME280;40208;39.778;2.710;2023-05-01T08:11:44;101292.94;;;18.08;100.00
54308;BME280;40208;39.778;2.710;2023-05-01T08:14:30;101418.09;;;18.90;100.00
54308;BME280;40208;39.778;2.710;2023-05-01T08:17:15;101420.13;;;18.99;100.00
54308;BME280;40208;39.778;2.710;2023-05-01T08:20:02;101426.56;;;19.10;100.00
54308;BME280;40208;39.778;2.710;2023-05-01T08:22:47;101419.59;;;19.20;100.00
54308;BME280;40208;39.778;2.710;2023-05-01T08:25:32;101411.63;;;19.18;100.00
54308;BME280;40208;39.778;2.710;2023-05-01T08:28:18;101418.66;;;19.45;100.00
54308;BME280;40208;39.778;2.710;2023-05-01T08:31:04;101308.47;;;18.81;100.00
54308;BME280;40208;39.778;2.710;2023-05-01T08:33:49;101405.63;;;19.52;100.00
54308;BME280;40208;39.778;2.710;2023-05-01T08:36:34;101428.41;;;19.72;100.00
54308;BME280;40208;39.778;2.710;2023-05-01T08:39:19;101430.25;;;19.84;100.00
54308;BME280;40208;39.778;2.710;2023-05-01T08:42:04;101366.66;;;19.44;100.00
54308;BME280;40208;39.778;2.710;2023-05-01T08:44:49;101395.03;;;19.61;100.00
54308;BME280;40208;39.778;2.710;2023-05-01T08:47:39;101434.53;;;19.86;100.00
54308;BME280;40208;39.778;2.710;2023-05-01T08:50:24;101450.19;;;20.05;100.00
54308;BME280;40208;39.778;2.710;2023-05-01T08:53:12;101450.06;;;20.07;100.00
54308;BME280;40208;39.778;2.710;2023-05-01T08:55:59;101360.19;;;19.47;100.00
54308;BME280;40208;39.778;2.710;2023-05-01T08:58:46;101280.31;;;19.11;100.00
54308;BME280;40208;39.778;2.710;2023-05-01T09:01:32;101449.84;;;20.10;100.00
54308;BME280;40208;39.778;2.710;2023-05-01T09:04:17;101373.41;;;19.50;100.00
54308;BME280;40208;39.778;2.710;2023-05-01T09:07:03;101463.78;;;20.04;100.00
54308;BME280;40208;39.778;2.710;2023-05-01T09:09:48;101375.06;;;19.40;100.00
54308;BME280;40208;39.778;2.710;2023-05-01T09:12:33;101465.28;;;20.08;100.00
54308;BME280;40208;39.778;2.710;2023-05-01T09:15:26;101474.56;;;20.04;100.00
54308;BME280;40208;39.778;2.710;2023-05-01T09:18:11;101405.91;;;19.60;100.00
54308;BME280;40208;39.778;2.710;2023-05-01T09:20:57;101467.63;;;19.88;100.00
54308;BME280;40208;39.778;2.710;2023-05-01T09:23:42;101479.25;;;19.89;100.00
54308;BME280;40208;39.778;2.710;2023-05-01T09:26:26;101407.47;;;19.51;100.00
54308;BME280;40208;39.778;2.710;2023-05-01T09:29:11;101465.63;;;19.90;100.00
54308;BME280;40208;39.778;2.710;2023-05-01T09:32:12;101447.56;;;19.67;100.00
54308;BME280;40208;39.778;2.710;2023-05-01T09:35:11;101488.47;;;19.98;100.00
54308;BME280;40208;39.778;2.710;2023-05-01T09:37:56;101481.41;;;19.84;100.00
54308;BME280;40208;39.778;2.710;2023-05-01T09:40:41;101307.59;;;18.80;100.00
54308;BME280;40208;39.778;2.710;2023-05-01T09:43:27;101492.66;;;20.02;100.00
54308;BME280;40208;39.778;2.710;2023-05-01T09:46:13;101442.19;;;19.67;100.00
54308;BME280;40208;39.778;2.710;2023-05-01T09:48:59;101434.03;;;19.68;100.00
54308;BME280;40208;39.778;2.710;2023-05-01T09:51:48;101503.28;;;20.16;100.00
54308;BME280;40208;39.778;2.710;2023-05-01T09:54:33;101509.44;;;20.18;100.00
54308;BME280;40208;39.778;2.710;2023-05-01T09:57:34;101418.41;;;19.61;100.00
54308;BME280;40208;39.778;2.710;2023-05-01T10:00:20;101423.03;;;19.72;100.00
54308;BME280;40208;39.778;2.710;2023-05-01T10:03:12;101405.81;;;19.61;100.00
54308;BME280;40208;39.778;2.710;2023-05-01T10:05:58;101524.00;;;20.40;100.00
54308;BME280;40208;39.778;2.710;2023-05-01T10:08:48;101515.81;;;20.41;100.00
54308;BME280;40208;39.778;2.710;2023-05-01T10:11:53;101521.59;;;20.48;100.00
54308;BME280;40208;39.778;2.710;2023-05-01T10:14:54;101510.56;;;20.51;100.00
54308;BME280;40208;39.778;2.710;2023-05-01T10:17:42;101487.59;;;20.58;100.00
54308;BME280;40208;39.778;2.710;2023-05-01T10:20:27;101394.41;;;19.95;100.00
54308;BME280;40208;39.778;2.710;2023-05-01T10:23:13;101450.44;;;20.38;100.00
54308;BME280;40208;39.778;2.710;2023-05-01T10:26:00;101472.66;;;20.65;100.00
54308;BME280;40208;39.778;2.710;2023-05-01T10:28:47;101429.88;;;20.37;100.00
54308;BME280;40208;39.778;2.710;2023-05-01T10:31:32;101521.00;;;20.80;100.00
54308;BME280;40208;39.778;2.710;2023-05-01T10:34:20;101440.50;;;20.27;100.00
54308;BME280;40208;39.778;2.710;2023-05-01T10:37:12;101455.00;;;20.37;100.00
54308;BME280;40208;39.778;2.710;2023-05-01T10:43:27;101474.84;;;20.60;100.00
54308;BME280;40208;39.778;2.710;2023-05-01T10:49:02;101356.19;;;19.89;100.00
54308;BME280;40208;39.778;2.710;2023-05-01T10:54:42;101525.81;;;20.87;100.00
54308;BME280;40208;39.778;2.710;2023-05-01T10:57:42;101539.69;;;20.94;100.00
54308;BME280;40208;39.778;2.710;2023-05-01T11:00:27;101465.25;;;20.56;100.00
54308;BME280;40208;39.778;2.710;2023-05-01T11:06:06;101441.41;;;20.50;100.00
54308;BME280;40208;39.778;2.710;2023-05-01T11:08:51;101521.09;;;21.13;100.00
54308;BME280;40208;39.778;2.710;2023-05-01T11:17:53;101496.13;;;21.56;100.00
54308;BME280;40208;39.778;2.710;2023-05-01T11:20:45;101493.91;;;21.62;100.00
54308;BME280;40208;39.778;2.710;2023-05-01T11:23:31;101393.75;;;21.08;100.00
54308;BME280;40208;39.778;2.710;2023-05-01T11:26:22;101466.41;;;21.56;100.00
54308;BME280;40208;39.778;2.710;2023-05-01T11:29:14;101312.53;;;20.66;100.00
54308;BME280;40208;39.778;2.710;2023-05-01T11:32:06;101109.63;;;19.26;100.00
54308;BME280;40208;39.778;2.710;2023-05-01T11:34:58;101496.88;;;21.70;100.00
54308;BME280;40208;39.778;2.710;2023-05-01T11:37:49;101509.38;;;21.71;100.00
54308;BME280;40208;39.778;2.710;2023-05-01T11:40:41;101498.94;;;21.66;100.00
54308;BME280;40208;39.778;2.710;2023-05-01T11:43:32;101433.75;;;21.03;100.00
54308;BME280;40208;39.778;2.710;2023-05-01T11:49:27;101234.25;;;19.99;100.00
54308;BME280;40208;39.778;2.710;2023-05-01T11:52:19;101315.72;;;20.60;100.00
54308;BME280;40208;39.778;2.710;2023-05-01T11:55:11;101149.97;;;19.50;100.00
54308;BME280;40208;39.778;2.710;2023-05-01T11:58:02;101502.00;;;21.84;100.00
54308;BME280;40208;39.778;2.710;2023-05-01T12:00:54;101280.53;;;20.62;100.00
54308;BME280;40208;39.778;2.710;2023-05-01T12:03:45;101509.84;;;21.98;100.00
54308;BME280;40208;39.778;2.710;2023-05-01T12:06:41;101320.50;;;20.90;100.00
54308;BME280;40208;39.778;2.710;2023-05-01T12:09:35;101459.53;;;21.75;100.00
54308;BME280;40208;39.778;2.710;2023-05-01T12:12:27;101522.88;;;22.05;100.00
54308;BME280;40208;39.778;2.710;2023-05-01T12:15:18;101529.13;;;21.94;100.00
54308;BME280;40208;39.778;2.710;2023-05-01T12:18:04;101494.41;;;21.67;100.00
54308;BME280;40208;39.778;2.710;2023-05-01T12:20:52;101342.34;;;20.87;100.00
54308;BME280;40208;39.778;2.710;2023-05-01T12:23:37;101514.28;;;21.88;100.00
54308;BME280;40208;39.778;2.710;2023-05-01T12:26:23;101491.84;;;21.65;100.00
54308;BME280;40208;39.778;2.710;2023-05-01T12:29:10;101370.19;;;20.99;100.00
54308;BME280;40208;39.778;2.710;2023-05-01T12:32:02;101464.97;;;21.52;100.00
54308;BME280;40208;39.778;2.710;2023-05-01T12:34:52;101281.34;;;20.40;100.00
54308;BME280;40208;39.778;2.710;2023-05-01T12:37:43;101510.00;;;21.74;100.00
54308;BME280;40208;39.778;2.710;2023-05-01T12:40:34;101447.13;;;21.38;100.00
54308;BME280;40208;39.778;2.710;2023-05-01T12:43:33;101397.44;;;21.07;100.00
54308;BME280;40208;39.778;2.710;2023-05-01T12:46:25;101413.88;;;21.15;100.00
54308;BME280;40208;39.778;2.710;2023-05-01T12:49:17;101476.00;;;21.49;100.00
54308;BME280;40208;39.778;2.710;2023-05-01T12:52:08;101423.44;;;21.08;100.00
54308;BME280;40208;39.778;2.710;2023-05-01T12:55:02;101522.53;;;21.64;100.00
54308;BME280;40208;39.778;2.710;2023-05-01T12:57:52;101464.56;;;21.34;100.00
54308;BME280;40208;39.778;2.710;2023-05-01T13:00:46;101319.00;;;20.52;100.00
54308;BME280;40208;39.778;2.710;2023-05-01T13:03:42;101478.56;;;21.39;100.00
54308;BME280;40208;39.778;2.710;2023-05-01T13:06:33;101489.50;;;21.49;100.00
54308;BME280;40208;39.778;2.710;2023-05-01T13:09:26;101526.09;;;21.65;100.00
54308;BME280;40208;39.778;2.710;2023-05-01T13:12:17;101525.84;;;21.68;100.00
54308;BME280;40208;39.778;2.710;2023-05-01T13:15:20;101413.75;;;21.06;100.00
54308;BME280;40208;39.778;2.710;2023-05-01T13:18:11;101363.19;;;20.85;100.00
54308;BME280;40208;39.778;2.710;2023-05-01T13:21:07;101490.25;;;21.63;100.00
54308;BME280;40208;39.778;2.710;2023-05-01T13:24:00;101465.28;;;21.36;100.00
54308;BME280;40208;39.778;2.710;2023-05-01T13:26:57;101488.50;;;21.39;100.00
54308;BME280;40208;39.778;2.710;2023-05-01T13:29:55;101517.25;;;21.63;100.00
54308;BME280;40208;39.778;2.710;2023-05-01T13:32:49;101461.47;;;21.39;100.00
54308;BME280;40208;39.778;2.710;2023-05-01T13:35:40;101433.00;;;21.12;100.00
54308;BME280;40208;39.778;2.710;2023-05-01T13:38:34;101496.00;;;21.58;100.00
54308;BME280;40208;39.778;2.710;2023-05-01T13:41:30;101489.28;;;21.52;100.00
54308;BME280;40208;39.778;2.710;2023-05-01T13:44:21;101468.63;;;21.40;100.00
54308;BME280;40208;39.778;2.710;2023-05-01T13:47:15;101437.19;;;21.28;100.00
54308;BME280;40208;39.778;2.710;2023-05-01T13:50:12;101266.53;;;20.34;100.00
54308;BME280;40208;39.778;2.710;2023-05-01T13:53:05;101462.72;;;21.69;100.00
54308;BME280;40208;39.778;2.710;2023-05-01T13:55:57;101460.38;;;21.75;100.00
54308;BME280;40208;39.778;2.710;2023-05-01T13:58:49;101454.13;;;21.75;100.00
54308;BME280;40208;39.778;2.710;2023-05-01T14:01:41;101456.44;;;21.79;100.00
54308;BME280;40208;39.778;2.710;2023-05-01T14:04:35;101431.53;;;21.76;100.00
54308;BME280;40208;39.778;2.710;2023-05-01T14:07:26;101454.56;;;22.02;100.00
54308;BME280;40208;39.778;2.710;2023-05-01T14:10:17;101419.06;;;21.96;100.00
54308;BME280;40208;39.778;2.710;2023-05-01T14:13:09;101401.03;;;21.85;100.00
54308;BME280;40208;39.778;2.710;2023-05-01T14:16:04;101451.41;;;22.18;100.00
54308;BME280;40208;39.778;2.710;2023-05-01T14:18:57;101259.41;;;21.12;96.44
54308;BME280;40208;39.778;2.710;2023-05-01T14:21:48;101451.06;;;22.23;100.00
54308;BME280;40208;39.778;2.710;2023-05-01T14:24:41;101218.75;;;20.81;100.00
54308;BME280;40208;39.778;2.710;2023-05-01T14:27:32;101445.19;;;22.07;99.47
54308;BME280;40208;39.778;2.710;2023-05-01T14:30:34;101324.78;;;21.15;100.00
54308;BME280;40208;39.778;2.710;2023-05-01T14:33:29;101336.06;;;21.43;100.00
54308;BME280;40208;39.778;2.710;2023-05-01T14:36:21;101435.16;;;21.97;100.00
54308;BME280;40208;39.778;2.710;2023-05-01T14:39:14;101354.09;;;21.43;100.00
54308;BME280;40208;39.778;2.710;2023-05-01T14:42:06;101439.94;;;21.94;100.00
54308;BME280;40208;39.778;2.710;2023-05-01T14:44:56;101439.34;;;21.90;100.00
54308;BME280;40208;39.778;2.710;2023-05-01T14:47:48;101438.97;;;21.95;100.00
54308;BME280;40208;39.778;2.710;2023-05-01T14:50:33;101164.31;;;20.20;100.00
54308;BME280;40208;39.778;2.710;2023-05-01T14:53:20;101446.72;;;21.88;100.00
54308;BME280;40208;39.778;2.710;2023-05-01T14:56:11;101453.84;;;21.89;100.00
54308;BME280;40208;39.778;2.710;2023-05-01T14:59:02;101441.91;;;21.92;100.00
54308;BME280;40208;39.778;2.710;2023-05-01T15:01:54;101226.22;;;20.55;100.00